sensor_id;sensor_type;location;lat;lon;timestamp;P1;durP1;ratioP1;P2;durP2;ratioP2
33926;SDS011;20485;50.992;5.550;2022-07-15T07:45:54;8.25;;;1.38;;
33926;SDS011;20485;50.992;5.550;2022-07-15T07:48:20;8.15;;;1.13;;
33926;SDS011;20485;50.992;5.550;2022-07-15T07:54:00;5.43;;;1.27;;
33926;SDS011;20485;50.992;5.550;2022-07-15T07:56:26;8.63;;;1.45;;
33926;SDS011;20485;50.992;5.550;2022-07-15T07:58:53;11.32;;;1.40;;
33926;SDS011;20485;50.992;5.550;2022-07-15T08:01:19;7.72;;;1.10;;
33926;SDS011;20485;50.992;5.550;2022-07-15T08:03:44;9.20;;;1.45;;
33926;SDS011;20485;50.992;5.550;2022-07-15T08:06:10;7.10;;;1.42;;
33926;SDS011;20485;50.992;5.550;2022-07-15T08:08:36;7.43;;;1.20;;
33926;SDS011;20485;50.992;5.550;2022-07-15T08:14:22;6.32;;;1.30;;
33926;SDS011;20485;50.992;5.550;2022-07-15T08:20:11;7.07;;;1.10;;
33926;SDS011;20485;50.992;5.550;2022-07-15T08:26:00;2.53;;;1.10;;
33926;SDS011;20485;50.992;5.550;2022-07-15T08:28:26;5.47;;;1.17;;
33926;SDS011;20485;50.992;5.550;2022-07-15T08:30:51;2.97;;;1.23;;
33926;SDS011;20485;50.992;5.550;2022-07-15T08:33:17;5.97;;;0.90;;
33926;SDS011;20485;50.992;5.550;2022-07-15T08:35:43;6.85;;;1.45;;
33926;SDS011;20485;50.992;5.550;2022-07-15T08:38:09;6.30;;;1.15;;
33926;SDS011;20485;50.992;5.550;2022-07-15T08:40:36;6.63;;;1.23;;
33926;SDS011;20485;50.992;5.550;2022-07-15T08:43:09;15.05;;;1.85;;
33926;SDS011;20485;50.992;5.550;2022-07-15T11:09:02;4.28;;;0.65;;
33926;SDS011;20485;50.992;5.550;2022-07-15T11:13:55;1.90;;;0.70;;
33926;SDS011;20485;50.992;5.550;2022-07-15T11:16:27;5.90;;;0.70;;
33926;SDS011;20485;50.992;5.550;2022-07-15T11:18:55;3.58;;;0.95;;
33926;SDS011;20485;50.992;5.550;2022-07-15T11:21:31;3.45;;;0.52;;
33926;SDS011;20485;50.992;5.550;2022-07-15T11:23:57;6.10;;;0.70;;
33926;SDS011;20485;50.992;5.550;2022-07-15T11:26:27;3.03;;;0.77;;
33926;SDS011;20485;50.992;5.550;2022-07-15T11:29:10;3.92;;;0.70;;
33926;SDS011;20485;50.992;5.550;2022-07-15T11:31:48;1.85;;;0.50;;
33926;SDS011;20485;50.992;5.550;2022-07-15T11:34:13;2.80;;;0.43;;
33926;SDS011;20485;50.992;5.550;2022-07-15T11:36:40;3.80;;;0.70;;
33926;SDS011;20485;50.992;5.550;2022-07-15T11:39:16;0.70;;;0.28;;
33926;SDS011;20485;50.992;5.550;2022-07-15T11:41:53;2.00;;;0.55;;
33926;SDS011;20485;50.992;5.550;2022-07-15T11:44:47;5.65;;;0.57;;
33926;SDS011;20485;50.992;5.550;2022-07-15T11:47:14;2.08;;;0.60;;
33926;SDS011;20485;50.992;5.550;2022-07-15T11:52:29;4.82;;;0.55;;
33926;SDS011;20485;50.992;5.550;2022-07-15T11:54:55;2.15;;;0.43;;
33926;SDS011;20485;50.992;5.550;2022-07-15T11:57:21;3.92;;;0.40;;
33926;SDS011;20485;50.992;5.550;2022-07-15T11:59:52;4.13;;;0.70;;
33926;SDS011;20485;50.992;5.550;2022-07-15T12:02:22;1.80;;;0.40;;
33926;SDS011;20485;50.992;5.550;2022-07-15T12:04:49;4.82;;;0.60;;
33926;SDS011;20485;50.992;5.550;2022-07-15T20:44:55;3.23;;;1.20;;
33926;SDS011;20485;50.992;5.550;2022-07-15T20:47:21;2.78;;;1.13;;
33926;SDS011;20485;50.992;5.550;2022-07-15T20:49:46;4.65;;;1.42;;
33926;SDS011;20485;50.992;5.550;2022-07-15T20:52:12;4.20;;;1.35;;
33926;SDS011;20485;50.992;5.550;2022-07-15T20:54:38;3.63;;;1.40;;
33926;SDS011;20485;50.992;5.550;2022-07-15T20:57:05;2.15;;;1.10;;
33926;SDS011;20485;50.992;5.550;2022-07-15T20:59:35;3.03;;;1.15;;
33926;SDS011;20485;50.992;5.550;2022-07-15T21:02:01;5.15;;;1.40;;
33926;SDS011;20485;50.992;5.550;2022-07-15T21:04:30;2.10;;;1.33;;
33926;SDS011;20485;50.992;5.550;2022-07-15T21:06:55;2.72;;;1.33;;
33926;SDS011;20485;50.992;5.550;2022-07-15T21:09:22;4.75;;;1.30;;
33926;SDS011;20485;50.992;5.550;2022-07-15T21:11:48;7.57;;;1.50;;
33926;SDS011;20485;50.992;5.550;2022-07-15T21:14:14;3.22;;;1.00;;
33926;SDS011;20485;50.992;5.550;2022-07-15T21:16:39;5.82;;;1.35;;
33926;SDS011;20485;50.992;5.550;2022-07-15T21:19:06;6.65;;;1.55;;
33926;SDS011;20485;50.992;5.550;2022-07-15T21:21:32;3.60;;;1.20;;
33926;SDS011;20485;50.992;5.550;2022-07-15T21:23:57;5.72;;;1.42;;
33926;SDS011;20485;50.992;5.550;2022-07-15T21:26:23;3.20;;;1.38;;
33926;SDS011;20485;50.992;5.550;2022-07-15T21:29:09;3.97;;;1.20;;
33926;SDS011;20485;50.992;5.550;2022-07-15T21:31:36;4.38;;;1.45;;
33926;SDS011;20485;50.992;5.550;2022-07-15T21:34:02;5.63;;;1.10;;
33926;SDS011;20485;50.992;5.550;2022-07-15T21:36:28;6.88;;;1.80;;
33926;SDS011;20485;50.992;5.550;2022-07-15T21:38:54;5.60;;;1.38;;
33926;SDS011;20485;50.992;5.550;2022-07-15T21:41:20;5.93;;;1.30;;
33926;SDS011;20485;50.992;5.550;2022-07-15T21:43:47;3.38;;;1.08;;
33926;SDS011;20485;50.992;5.550;2022-07-15T21:46:13;5.85;;;1.50;;
33926;SDS011;20485;50.992;5.550;2022-07-15T21:48:39;4.25;;;1.42;;
33926;SDS011;20485;50.992;5.550;2022-07-15T21:51:05;11.50;;;1.67;;
33926;SDS011;20485;50.992;5.550;2022-07-15T21:53:31;4.55;;;1.92;;
33926;SDS011;20485;50.992;5.550;2022-07-15T21:55:56;2.65;;;1.42;;
33926;SDS011;20485;50.992;5.550;2022-07-15T21:58:22;2.50;;;1.45;;
33926;SDS011;20485;50.992;5.550;2022-07-15T22:00:48;8.27;;;1.77;;
33926;SDS011;20485;50.992;5.550;2022-07-15T22:03:14;9.85;;;1.52;;
33926;SDS011;20485;50.992;5.550;2022-07-15T22:05:41;8.13;;;1.80;;
33926;SDS011;20485;50.992;5.550;2022-07-15T22:08:08;3.17;;;1.65;;
33926;SDS011;20485;50.992;5.550;2022-07-15T22:10:35;6.18;;;1.70;;
33926;SDS011;20485;50.992;5.550;2022-07-15T22:13:02;5.20;;;2.08;;
33926;SDS011;20485;50.992;5.550;2022-07-15T22:15:28;5.78;;;1.85;;
33926;SDS011;20485;50.992;5.550;2022-07-15T22:17:54;5.60;;;1.83;;
33926;SDS011;20485;50.992;5.550;2022-07-15T22:20:20;5.25;;;2.05;;
33926;SDS011;20485;50.992;5.550;2022-07-15T22:22:46;6.97;;;1.90;;
33926;SDS011;20485;50.992;5.550;2022-07-15T22:25:14;5.80;;;1.95;;
33926;SDS011;20485;50.992;5.550;2022-07-15T22:27:40;6.80;;;2.42;;
33926;SDS011;20485;50.992;5.550;2022-07-15T22:30:07;6.15;;;1.65;;
33926;SDS011;20485;50.992;5.550;2022-07-15T22:32:35;7.15;;;2.35;;
33926;SDS011;20485;50.992;5.550;2022-07-15T22:35:03;4.18;;;1.60;;
33926;SDS011;20485;50.992;5.550;2022-07-15T22:37:29;6.60;;;1.90;;
33926;SDS011;20485;50.992;5.550;2022-07-15T22:39:55;8.88;;;2.03;;
33926;SDS011;20485;50.992;5.550;2022-07-15T22:42:20;11.18;;;2.25;;
33926;SDS011;20485;50.992;5.550;2022-07-15T22:44:46;6.97;;;2.20;;
33926;SDS011;20485;50.992;5.550;2022-07-15T22:47:12;5.20;;;1.95;;
33926;SDS011;20485;50.992;5.550;2022-07-15T22:49:38;4.50;;;2.38;;
33926;SDS011;20485;50.992;5.550;2022-07-15T22:52:07;2.90;;;1.63;;
33926;SDS011;20485;50.992;5.550;2022-07-15T22:54:33;4.93;;;2.35;;
33926;SDS011;20485;50.992;5.550;2022-07-15T22:56:58;3.35;;;1.80;;
33926;SDS011;20485;50.992;5.550;2022-07-15T22:59:24;9.57;;;2.25;;
33926;SDS011;20485;50.992;5.550;2022-07-15T23:01:50;4.35;;;1.90;;
33926;SDS011;20485;50.992;5.550;2022-07-15T23:04:16;4.45;;;1.80;;
33926;SDS011;20485;50.992;5.550;2022-07-15T23:06:44;8.20;;;2.00;;
33926;SDS011;20485;50.992;5.550;2022-07-15T23:09:09;8.63;;;2.20;;
33926;SDS011;20485;50.992;5.550;2022-07-15T23:11:35;5.70;;;2.03;;
33926;SDS011;20485;50.992;5.550;2022-07-15T23:14:01;8.23;;;2.10;;
33926;SDS011;20485;50.992;5.550;2022-07-15T23:16:27;6.85;;;2.33;;
33926;SDS011;20485;50.992;5.550;2022-07-15T23:18:54;10.73;;;2.25;;
33926;SDS011;20485;50.992;5.550;2022-07-15T23:21:19;3.53;;;2.00;;
33926;SDS011;20485;50.992;5.550;2022-07-15T23:23:45;6.22;;;1.95;;
33926;SDS011;20485;50.992;5.550;2022-07-15T23:26:11;7.15;;;2.08;;
33926;SDS011;20485;50.992;5.550;2022-07-15T23:28:37;4.13;;;1.77;;
33926;SDS011;20485;50.992;5.550;2022-07-15T23:31:03;6.95;;;1.90;;
33926;SDS011;20485;50.992;5.550;2022-07-15T23:33:29;8.43;;;2.15;;
33926;SDS011;20485;50.992;5.550;2022-07-15T23:35:55;5.72;;;2.10;;
33926;SDS011;20485;50.992;5.550;2022-07-15T23:38:22;7.63;;;2.13;;
33926;SDS011;20485;50.992;5.550;2022-07-15T23:40:47;3.95;;;1.90;;
33926;SDS011;20485;50.992;5.550;2022-07-15T23:43:13;7.20;;;2.00;;
33926;SDS011;20485;50.992;5.550;2022-07-15T23:45:39;3.00;;;1.88;;
33926;SDS011;20485;50.992;5.550;2022-07-15T23:48:04;5.95;;;2.30;;
33926;SDS011;20485;50.992;5.550;2022-07-15T23:50:30;6.15;;;2.08;;
33926;SDS011;20485;50.992;5.550;2022-07-15T23:52:56;7.20;;;2.00;;
33926;SDS011;20485;50.992;5.550;2022-07-15T23:55:22;5.53;;;1.45;;
33926;SDS011;20485;50.992;5.550;2022-07-15T23:57:47;6.72;;;2.25;;
